createdAt,value
2023-02-24T00:00:38.712Z,97992.81
2023-02-24T00:03:11.572Z,97995.59
2023-02-24T00:05:44.536Z,97990.28
2023-02-24T00:08:11.187Z,97983.38
2023-02-24T00:10:37.854Z,97983.53
2023-02-24T00:13:04.586Z,97979.19
2023-02-24T00:15:31.121Z,97980.97
2023-02-24T00:17:58.517Z,97980.91
2023-02-24T00:20:25.309Z,97978.38
2023-02-24T00:22:51.955Z,97975.75
2023-02-24T00:25:18.498Z,97982.00
2023-02-24T00:27:45.005Z,97975.09
2023-02-24T00:30:12.268Z,97976.72
2023-02-24T00:32:39.109Z,97965.66
2023-02-24T00:35:06.766Z,97965.56
2023-02-24T00:37:33.354Z,97959.50
2023-02-24T00:40:00.052Z,97962.97
2023-02-24T00:42:27.162Z,97960.50
2023-02-24T00:44:54.282Z,97958.88
2023-02-24T00:47:22.536Z,97961.47
2023-02-24T00:49:50.490Z,97952.75
2023-02-24T00:52:20.220Z,97953.66
2023-02-24T00:54:49.379Z,97953.66
2023-02-24T00:57:18.663Z,97955.38
2023-02-24T00:59:48.211Z,97948.44
2023-02-24T01:02:15.393Z,97953.66
2023-02-24T01:04:44.508Z,97938.91
2023-02-24T01:07:11.747Z,97941.56
2023-02-24T01:09:40.371Z,97932.84
2023-02-24T01:12:38.480Z,97937.28
2023-02-24T01:15:09.243Z,97940.75
2023-02-24T01:17:37.524Z,97942.50
2023-02-24T01:20:16.695Z,97934.72
2023-02-24T01:22:45.093Z,97932.75
2023-02-24T01:25:12.260Z,97936.41
2023-02-24T01:27:40.407Z,97935.50
2023-02-24T01:30:16.431Z,97927.78
2023-02-24T01:32:44.186Z,97927.81
2023-02-24T01:35:12.331Z,97926.09
2023-02-24T01:37:39.803Z,97919.16
2023-02-24T01:40:12.079Z,97911.34
2023-02-24T01:42:41.771Z,97907.00
2023-02-24T01:45:14.457Z,97906.91
2023-02-24T01:47:42.208Z,97899.88
2023-02-24T01:50:10.684Z,97885.94
2023-02-24T01:52:38.219Z,97886.78
2023-02-24T01:55:11.085Z,97885.13
2023-02-24T01:57:39.253Z,97879.00
2023-02-24T02:00:12.469Z,97880.78
2023-02-24T02:02:42.623Z,97881.63
2023-02-24T02:05:10.131Z,97879.88
2023-02-24T02:07:40.099Z,97880.81
2023-02-24T02:10:08.477Z,97875.69
2023-02-24T02:12:37.831Z,97871.28
2023-02-24T02:15:06.893Z,97873.03
2023-02-24T02:18:10.970Z,97868.84
2023-02-24T02:21:25.343Z,97866.06
2023-02-24T02:24:14.882Z,97863.59
2023-02-24T02:26:47.951Z,97864.41
2023-02-24T02:29:56.406Z,97863.53
2023-02-24T02:32:52.227Z,97860.09
2023-02-24T02:35:26.230Z,97860.09
2023-02-24T02:37:59.519Z,97854.00
2023-02-24T02:40:48.772Z,97857.38
2023-02-24T02:43:50.427Z,97852.22
2023-02-24T02:46:35.105Z,97848.81
2023-02-24T02:49:26.140Z,97847.06
2023-02-24T02:51:57.492Z,97845.28
2023-02-24T02:55:00.494Z,97839.22
2023-02-24T02:57:30.896Z,97839.25
2023-02-24T03:00:23.385Z,97836.56
2023-02-24T03:02:55.508Z,97830.41
2023-02-24T03:05:29.905Z,97824.34
2023-02-24T03:07:59.211Z,97823.38
2023-02-24T03:10:29.257Z,97813.84
2023-02-24T03:13:01.942Z,97808.56
2023-02-24T03:15:32.855Z,97813.88
2023-02-24T03:18:10.719Z,97807.72
2023-02-24T03:20:43.956Z,97808.59
2023-02-24T03:23:22.030Z,97799.09
2023-02-24T03:25:59.418Z,97802.63
2023-02-24T03:28:35.861Z,97800.00
2023-02-24T03:31:13.575Z,97794.66
2023-02-24T03:33:48.977Z,97783.19
2023-02-24T03:36:15.628Z,97791.16
2023-02-24T03:38:43.499Z,97788.66
2023-02-24T03:41:13.489Z,97787.81
2023-02-24T03:43:45.124Z,97787.69
2023-02-24T03:46:12.719Z,97772.88
2023-02-24T03:48:46.988Z,97771.19
2023-02-24T03:51:26.521Z,97775.56
2023-02-24T03:54:16.286Z,97771.19
2023-02-24T03:57:09.914Z,97770.19
2023-02-24T03:59:56.186Z,97762.31
2023-02-24T04:02:30.413Z,97774.44
2023-02-24T04:05:03.446Z,97776.44
2023-02-24T04:07:53.357Z,97764.28
2023-02-24T04:10:28.094Z,97755.63
2023-02-24T04:13:06.446Z,97757.47
2023-02-24T04:15:44.107Z,97757.34
2023-02-24T04:18:18.620Z,97757.34
2023-02-24T04:20:51.289Z,97749.66
2023-02-24T04:23:22.590Z,97752.25
2023-02-24T04:25:53.460Z,97745.19
2023-02-24T04:28:22.505Z,97746.00
2023-02-24T04:30:53.243Z,97740.16
2023-02-24T04:33:20.462Z,97741.03
2023-02-24T04:35:50.681Z,97737.75
2023-02-24T04:38:18.265Z,97745.59
2023-02-24T04:40:45.320Z,97740.75
2023-02-24T04:43:13.143Z,97738.19
2023-02-24T04:45:40.423Z,97734.84
2023-02-24T04:48:13.026Z,97727.03
2023-02-24T04:50:42.328Z,97732.22
2023-02-24T04:53:15.276Z,97720.19
2023-02-24T04:55:49.085Z,97718.47
2023-02-24T04:58:29.402Z,97712.44
2023-02-24T05:00:56.626Z,97714.06
2023-02-24T05:03:28.586Z,97710.69
2023-02-24T05:06:02.598Z,97723.81
2023-02-24T05:08:30.958Z,97709.13
2023-02-24T05:10:58.883Z,97710.94
2023-02-24T05:13:28.244Z,97708.44
2023-02-24T05:15:56.866Z,97710.25
2023-02-24T05:18:29.737Z,97699.91
2023-02-24T05:21:15.681Z,97708.56
2023-02-24T05:23:47.014Z,97705.28
2023-02-24T05:26:18.663Z,97702.75
2023-02-24T05:28:52.421Z,97702.06
2023-02-24T05:31:26.499Z,97697.81
2023-02-24T05:33:57.655Z,97701.31
2023-02-24T05:36:26.060Z,97689.28
2023-02-24T05:39:07.911Z,97694.53
2023-02-24T05:41:36.551Z,97695.31
2023-02-24T05:44:08.938Z,97693.53
2023-02-24T05:46:41.706Z,97697.94
2023-02-24T05:49:14.380Z,97692.75
2023-02-24T05:51:43.672Z,97690.06
2023-02-24T05:54:13.488Z,97687.59
2023-02-24T05:56:43.878Z,97701.47
2023-02-24T05:59:12.775Z,97696.19
2023-02-24T06:01:47.528Z,97696.41
2023-02-24T06:04:39.468Z,97692.94
2023-02-24T06:07:21.049Z,97689.44
2023-02-24T06:09:54.016Z,97686.97
2023-02-24T06:12:26.231Z,97678.25
2023-02-24T06:14:53.291Z,97682.44
2023-02-24T06:17:21.909Z,97683.22
2023-02-24T06:19:51.432Z,97677.94
2023-02-24T06:22:21.453Z,97682.38
2023-02-24T06:24:49.583Z,97676.44
2023-02-24T06:27:21.786Z,97673.75
2023-02-24T06:29:54.110Z,97671.03
2023-02-24T06:32:26.942Z,97672.00
2023-02-24T06:34:54.433Z,97678.25
2023-02-24T06:37:23.140Z,97665.28
2023-02-24T06:39:50.196Z,97663.47
2023-02-24T06:42:17.207Z,97679.06
2023-02-24T06:44:43.958Z,97680.13
2023-02-24T06:47:14.811Z,97670.50
2023-02-24T06:49:43.141Z,97672.44
2023-02-24T06:52:11.978Z,97668.09
2023-02-24T06:54:38.922Z,97678.63
2023-02-24T06:57:05.702Z,97680.34
2023-02-24T06:59:33.483Z,97671.78
2023-02-24T07:02:03.615Z,97671.84
2023-02-24T07:04:30.534Z,97668.31
2023-02-24T07:07:03.409Z,97669.06
2023-02-24T07:09:32.452Z,97678.88
2023-02-24T07:12:02.753Z,97674.50
2023-02-24T07:14:32.895Z,97671.13
2023-02-24T07:17:00.672Z,97670.25
2023-02-24T07:19:32.642Z,97661.38
2023-02-24T07:22:02.331Z,97664.00
2023-02-24T07:24:40.026Z,97659.53
2023-02-24T07:27:09.574Z,97645.56
2023-02-24T07:29:38.050Z,97656.78
2023-02-24T07:32:09.081Z,97648.88
2023-02-24T07:34:40.580Z,97645.31
2023-02-24T07:37:08.750Z,97645.28
2023-02-24T07:39:39.587Z,97634.81
2023-02-24T07:42:08.969Z,97641.78
2023-02-24T07:44:35.703Z,97635.09
2023-02-24T07:47:08.065Z,97641.22
2023-02-24T07:49:35.640Z,97635.16
2023-02-24T07:52:02.369Z,97628.16
2023-02-24T07:54:30.248Z,97627.09
2023-02-24T07:56:59.352Z,97622.78
2023-02-24T07:59:27.616Z,97615.75
2023-02-24T08:01:56.135Z,97612.22
2023-02-24T08:04:28.980Z,97606.91
2023-02-24T08:06:56.625Z,97600.66
2023-02-24T08:09:45.946Z,97604.03
2023-02-24T08:12:18.360Z,97597.66
2023-02-24T08:14:51.234Z,97587.38
2023-02-24T08:17:20.989Z,97587.88
2023-02-24T08:19:49.568Z,97580.88
2023-02-24T08:22:19.798Z,97579.84
2023-02-24T08:24:51.168Z,97587.47
2023-02-24T08:27:21.942Z,97563.00
2023-02-24T08:30:00.186Z,97556.00
2023-02-24T08:32:43.764Z,97568.25
2023-02-24T08:35:17.390Z,97556.88
2023-02-24T08:37:47.283Z,97559.25
2023-02-24T08:40:32.390Z,97559.13
2023-02-24T08:43:01.243Z,97543.69
2023-02-24T08:45:33.754Z,97546.41
2023-02-24T08:48:18.399Z,97537.06
2023-02-24T08:50:46.083Z,97536.06
2023-02-24T08:53:19.335Z,97531.63
2023-02-24T08:55:54.007Z,97533.50
2023-02-24T08:58:27.174Z,97528.22
2023-02-24T09:00:59.501Z,97524.66
2023-02-24T09:03:28.498Z,97527.88
2023-02-24T09:06:06.491Z,97527.06
2023-02-24T09:08:35.350Z,97515.91
2023-02-24T09:11:08.177Z,97515.97
2023-02-24T09:13:43.231Z,97500.22
2023-02-24T09:16:16.603Z,97503.50
2023-02-24T09:18:43.273Z,97499.84
2023-02-24T09:21:30.817Z,97495.00
2023-02-24T09:23:57.329Z,97480.59
2023-02-24T09:26:24.010Z,97481.47
2023-02-24T09:28:55.117Z,97477.75
2023-02-24T09:31:40.833Z,97464.50
2023-02-24T09:34:10.554Z,97456.50
2023-02-24T09:36:45.200Z,97457.56
2023-02-24T09:39:14.881Z,97452.75
2023-02-24T09:41:54.534Z,97450.41
2023-02-24T09:44:34.528Z,97448.53
2023-02-24T09:47:31.516Z,97434.22
2023-02-24T09:50:04.607Z,97441.31
2023-02-24T09:52:41.673Z,97432.09
2023-02-24T09:55:36.003Z,97414.88
2023-02-24T09:58:17.272Z,97418.75
2023-02-24T10:00:58.269Z,97419.44
2023-02-24T10:03:48.271Z,97407.06
2023-02-24T10:06:21.113Z,97408.38
2023-02-24T10:09:12.597Z,97390.47
2023-02-24T10:11:55.732Z,97381.59
2023-02-24T10:14:43.738Z,97371.66
2023-02-24T10:17:25.372Z,97365.22
2023-02-24T10:20:13.987Z,97366.69
2023-02-24T10:22:52.923Z,97351.16
2023-02-24T10:25:25.334Z,97345.03
2023-02-24T10:28:06.031Z,97344.72
2023-02-24T10:30:47.421Z,97351.75
2023-02-24T10:33:18.272Z,97338.28
2023-02-24T10:35:45.032Z,97335.16
2023-02-24T10:38:12.090Z,97334.38
2023-02-24T10:40:56.566Z,97324.47
2023-02-24T10:43:31.955Z,97323.63
2023-02-24T10:46:07.271Z,97325.66
2023-02-24T10:48:42.574Z,97314.34
2023-02-24T10:51:22.324Z,97309.97
2023-02-24T10:54:10.318Z,97310.66
2023-02-24T10:56:45.101Z,97302.69
2023-02-24T10:59:25.352Z,97296.78
2023-02-24T11:02:06.753Z,97290.44
2023-02-24T11:04:55.893Z,97292.09
2023-02-24T11:07:25.445Z,97295.31
2023-02-24T11:10:12.272Z,97289.00
2023-02-24T11:13:10.111Z,97289.28
2023-02-24T11:16:08.292Z,97280.81
2023-02-24T11:18:36.164Z,97277.66
2023-02-24T11:21:06.269Z,97280.16
2023-02-24T11:23:40.365Z,97274.44
2023-02-24T11:26:27.567Z,97266.16
2023-02-24T11:29:13.419Z,97255.81
2023-02-24T11:31:45.840Z,97256.38
2023-02-24T11:34:53.183Z,97239.66
2023-02-24T11:37:43.415Z,97241.34
2023-02-24T11:40:23.931Z,97239.22
2023-02-24T11:43:13.958Z,97227.06
2023-02-24T11:45:48.399Z,97220.00
2023-02-24T11:48:27.458Z,97220.00
2023-02-24T11:51:03.394Z,97214.47
2023-02-24T11:53:32.938Z,97212.53
2023-02-24T11:56:13.290Z,97203.16
2023-02-24T11:58:51.382Z,97200.25
2023-02-24T12:01:30.931Z,97198.16
2023-02-24T12:04:10.785Z,97201.47
2023-02-24T12:07:03.947Z,97177.25
2023-02-24T12:09:50.401Z,97175.88
2023-02-24T12:12:34.490Z,97175.38
2023-02-24T12:15:10.639Z,97164.13
2023-02-24T12:17:44.547Z,97165.53
2023-02-24T12:20:29.200Z,97163.66
2023-02-24T12:23:01.171Z,97159.91
2023-02-24T12:25:47.365Z,97160.97
2023-02-24T12:28:41.669Z,97148.44
2023-02-24T12:31:38.000Z,97146.81
2023-02-24T12:34:15.941Z,97136.94
2023-02-24T12:36:51.940Z,97140.09
2023-02-24T12:39:22.587Z,97142.25
2023-02-24T12:42:25.029Z,97132.56
2023-02-24T12:45:26.472Z,97118.34
2023-02-24T12:47:53.039Z,97123.66
2023-02-24T12:50:28.606Z,97108.50
2023-02-24T12:53:09.472Z,97106.50
2023-02-24T12:55:48.304Z,97111.72
2023-02-24T12:58:25.222Z,97114.84
2023-02-24T13:01:27.315Z,97108.69
2023-02-24T13:04:12.967Z,97097.94
2023-02-24T13:07:01.011Z,97107.88
2023-02-24T13:09:55.853Z,97093.69
2023-02-24T13:12:34.105Z,97088.00
2023-02-24T13:15:01.199Z,97088.19
2023-02-24T13:17:28.102Z,97087.63
2023-02-24T13:19:55.945Z,97086.00
2023-02-24T13:22:42.866Z,97084.91
2023-02-24T13:25:09.449Z,97076.94
2023-02-24T13:27:39.296Z,97074.09
2023-02-24T13:30:12.221Z,97077.34
2023-02-24T13:32:41.973Z,97070.41
2023-02-24T13:35:18.069Z,97073.00
2023-02-24T13:37:47.273Z,97068.09
2023-02-24T13:40:24.061Z,97061.97
2023-02-24T13:42:59.883Z,97070.00
2023-02-24T13:45:39.899Z,97059.41
2023-02-24T13:48:27.634Z,97064.97
2023-02-24T13:51:19.807Z,97061.19
2023-02-24T13:54:09.788Z,97072.00
2023-02-24T13:57:24.739Z,97068.38
2023-02-24T14:00:10.445Z,97068.84
2023-02-24T14:02:44.405Z,97071.09
2023-02-24T14:05:22.325Z,97079.97
2023-02-24T14:07:50.376Z,97083.28
2023-02-24T14:10:25.195Z,97088.22
2023-02-24T14:13:08.389Z,97082.38
2023-02-24T14:15:35.958Z,97086.25
2023-02-24T14:18:05.304Z,97086.00
2023-02-24T14:20:35.017Z,97075.25
2023-02-24T14:23:02.525Z,97083.97
2023-02-24T14:25:38.287Z,97084.56
2023-02-24T14:28:05.016Z,97081.09
2023-02-24T14:30:40.595Z,97082.56
2023-02-24T14:33:08.617Z,97067.75
2023-02-24T14:35:47.291Z,97069.34
2023-02-24T14:38:30.979Z,97053.50
2023-02-24T14:40:58.117Z,97053.16
2023-02-24T14:43:25.170Z,97052.56
2023-02-24T14:45:53.525Z,97054.78
2023-02-24T14:48:24.495Z,97053.16
2023-02-24T14:50:51.983Z,97042.03
2023-02-24T14:53:22.306Z,97048.31
2023-02-24T14:55:54.808Z,97046.13
2023-02-24T14:58:37.079Z,97029.50
2023-02-24T15:01:07.178Z,97035.78
2023-02-24T15:03:37.950Z,97023.75
2023-02-24T15:06:08.030Z,97023.63
2023-02-24T15:08:48.780Z,97017.72
2023-02-24T15:11:15.469Z,97007.13
2023-02-24T15:13:45.941Z,97003.06
2023-02-24T15:16:18.282Z,97007.59
2023-02-24T15:18:51.378Z,97000.63
2023-02-24T15:21:27.783Z,97003.03
2023-02-24T15:24:02.186Z,96998.00
2023-02-24T15:26:32.771Z,96985.16
2023-02-24T15:29:03.452Z,96992.13
2023-02-24T15:31:30.588Z,96980.03
2023-02-24T15:34:00.516Z,96988.44
2023-02-24T15:36:32.476Z,96989.59
2023-02-24T15:39:17.456Z,96988.53
2023-02-24T15:41:47.725Z,96988.72
2023-02-24T15:44:32.720Z,96981.75
2023-02-24T15:47:01.420Z,96986.28
2023-02-24T15:49:28.165Z,96978.47
2023-02-24T15:51:59.771Z,96982.03
2023-02-24T15:54:34.553Z,96973.63
2023-02-24T15:57:02.849Z,96984.25
2023-02-24T15:59:29.896Z,96972.06
2023-02-24T16:01:57.596Z,96970.25
2023-02-24T16:04:24.597Z,96958.97
2023-02-24T16:06:54.782Z,96967.00
2023-02-24T16:09:37.005Z,96954.03
2023-02-24T16:12:07.340Z,96951.47
2023-02-24T16:14:34.356Z,96961.78
2023-02-24T16:17:05.362Z,96960.16
2023-02-24T16:19:32.180Z,96960.31
2023-02-24T16:21:58.838Z,96951.75
2023-02-24T16:24:25.448Z,96943.09
2023-02-24T16:26:52.225Z,96941.44
2023-02-24T16:29:18.896Z,96939.63
2023-02-24T16:31:45.837Z,96939.78
2023-02-24T16:34:15.375Z,96950.16
2023-02-24T16:36:43.077Z,96949.25
2023-02-24T16:39:12.647Z,96940.78
2023-02-24T16:41:39.418Z,96946.91
2023-02-24T16:44:06.001Z,96949.50
2023-02-24T16:46:37.706Z,96946.03
2023-02-24T16:49:08.306Z,96945.22
2023-02-24T16:51:35.676Z,96940.19
2023-02-24T16:54:02.437Z,96941.72
2023-02-24T16:56:29.076Z,96944.50
2023-02-24T16:58:55.693Z,96942.00
2023-02-24T17:01:22.526Z,96946.31
2023-02-24T17:03:51.401Z,96954.03
2023-02-24T17:06:20.820Z,96936.81
2023-02-24T17:08:49.394Z,96936.78
2023-02-24T17:11:19.416Z,96947.25
2023-02-24T17:13:46.324Z,96935.91
2023-02-24T17:16:13.824Z,96938.56
2023-02-24T17:18:40.606Z,96927.22
2023-02-24T17:21:07.873Z,96939.25
2023-02-24T17:23:34.493Z,96933.28
2023-02-24T17:26:02.731Z,96932.34
2023-02-24T17:28:29.718Z,96936.59
2023-02-24T17:30:56.675Z,96933.06
2023-02-24T17:33:23.349Z,96931.44
2023-02-24T17:35:50.028Z,96929.72
2023-02-24T17:38:19.834Z,96930.44
2023-02-24T17:40:47.295Z,96920.88
2023-02-24T17:43:14.300Z,96924.28
2023-02-24T17:45:43.213Z,96921.69
2023-02-24T17:48:10.796Z,96927.94
2023-02-24T17:50:37.508Z,96919.97
2023-02-24T17:53:04.109Z,96922.56
2023-02-24T17:55:30.712Z,96923.34
2023-02-24T17:58:00.110Z,96919.09
2023-02-24T18:00:27.600Z,96910.38
2023-02-24T18:02:54.309Z,96906.16
2023-02-24T18:05:21.237Z,96899.81
2023-02-24T18:07:48.575Z,96897.97
2023-02-24T18:10:15.302Z,96905.00
2023-02-24T18:12:41.920Z,96900.75
2023-02-24T18:15:09.676Z,96905.91
2023-02-24T18:17:37.531Z,96894.44
2023-02-24T18:20:05.814Z,96894.50
2023-02-24T18:22:32.508Z,96894.50
2023-02-24T18:25:01.121Z,96888.44
2023-02-24T18:27:27.918Z,96887.41
2023-02-24T18:29:54.964Z,96880.66
2023-02-24T18:32:22.070Z,96880.50
2023-02-24T18:34:48.974Z,96870.03
2023-02-24T18:37:15.781Z,96870.00
2023-02-24T18:39:42.728Z,96877.88
2023-02-24T18:42:09.894Z,96874.47
2023-02-24T18:44:36.829Z,96880.59
2023-02-24T18:47:09.540Z,96882.22
2023-02-24T18:49:37.069Z,96870.19
2023-02-24T18:52:05.531Z,96872.53
2023-02-24T18:54:33.840Z,96865.59
2023-02-24T18:57:00.605Z,96864.75
2023-02-24T18:59:27.343Z,96861.41
2023-02-24T19:01:56.923Z,96860.59
2023-02-24T19:04:24.521Z,96855.38
2023-02-24T19:06:51.247Z,96849.31
2023-02-24T19:09:21.776Z,96845.84
2023-02-24T19:11:49.651Z,96842.28
2023-02-24T19:14:16.993Z,96842.28
2023-02-24T19:16:43.906Z,96842.28
2023-02-24T19:19:16.690Z,96838.75
2023-02-24T19:21:48.558Z,96841.44
2023-02-24T19:24:17.404Z,96844.91
2023-02-24T19:26:46.028Z,96845.03
2023-02-24T19:29:12.674Z,96847.56
2023-02-24T19:31:39.811Z,96840.72
2023-02-24T19:34:10.258Z,96850.94
2023-02-24T19:36:37.650Z,96840.72
2023-02-24T19:39:06.096Z,96843.88
2023-02-24T19:41:32.955Z,96845.72
2023-02-24T19:43:59.679Z,96836.22
2023-02-24T19:46:26.975Z,96830.94
2023-02-24T19:48:56.298Z,96825.06
2023-02-24T19:51:24.298Z,96829.41
2023-02-24T19:53:55.793Z,96823.28
2023-02-24T19:56:28.829Z,96818.97
2023-02-24T19:58:57.203Z,96813.78
2023-02-24T20:01:25.077Z,96822.47
2023-02-24T20:03:57.899Z,96812.91
2023-02-24T20:06:31.766Z,96813.09
2023-02-24T20:08:59.054Z,96813.09
2023-02-24T20:11:26.189Z,96804.38
2023-02-24T20:13:53.605Z,96812.13
2023-02-24T20:16:23.823Z,96809.41
2023-02-24T20:18:51.352Z,96806.13
2023-02-24T20:21:17.964Z,96811.31
2023-02-24T20:23:44.689Z,96816.50
2023-02-24T20:26:16.643Z,96815.50
2023-02-24T20:28:44.962Z,96808.63
2023-02-24T20:31:16.123Z,96802.53
2023-02-24T20:33:43.978Z,96806.69
2023-02-24T20:36:13.833Z,96799.75
2023-02-24T20:38:40.837Z,96803.13
2023-02-24T20:41:07.640Z,96806.56
2023-02-24T20:43:34.689Z,96800.59
2023-02-24T20:46:15.077Z,96793.63
2023-02-24T20:48:42.611Z,96794.47
2023-02-24T20:51:15.513Z,96791.88
2023-02-24T20:53:56.164Z,96800.19
2023-02-24T20:56:24.729Z,96786.69
2023-02-24T20:58:53.328Z,96784.00
2023-02-24T21:01:21.226Z,96792.75
2023-02-24T21:03:48.435Z,96781.63
2023-02-24T21:06:16.417Z,96791.66
2023-02-24T21:08:44.436Z,96783.19
2023-02-24T21:11:13.070Z,96790.00
2023-02-24T21:13:41.773Z,96783.22
2023-02-24T21:16:09.665Z,96791.06
2023-02-24T21:18:38.417Z,96783.16
2023-02-24T21:21:06.276Z,96781.50
2023-02-24T21:23:33.315Z,96784.94
2023-02-24T21:26:00.184Z,96781.50
2023-02-24T21:28:26.951Z,96786.81
2023-02-24T21:30:53.781Z,96795.34
2023-02-24T21:33:20.520Z,96800.44
2023-02-24T21:36:03.362Z,96797.81
2023-02-24T21:38:34.164Z,96797.13
2023-02-24T21:41:07.469Z,96784.00
2023-02-24T21:43:34.538Z,96797.19
2023-02-24T21:46:02.802Z,96805.59
2023-02-24T21:48:29.569Z,96797.06
2023-02-24T21:51:05.141Z,96797.13
2023-02-24T21:53:35.626Z,96795.38
2023-02-24T21:56:27.055Z,96799.72
2023-02-24T21:59:01.156Z,96800.69
2023-02-24T22:01:30.423Z,96802.38
2023-02-24T22:03:59.820Z,96799.75
2023-02-24T22:06:30.269Z,96796.44
2023-02-24T22:08:58.234Z,96804.22
2023-02-24T22:11:24.955Z,96806.78
2023-02-24T22:13:51.655Z,96807.25
2023-02-24T22:16:21.968Z,96803.34
2023-02-24T22:18:50.246Z,96805.81
2023-02-24T22:21:19.532Z,96796.19
2023-02-24T22:23:48.564Z,96800.53
2023-02-24T22:26:16.899Z,96800.53
2023-02-24T22:28:45.312Z,96802.25
2023-02-24T22:31:14.310Z,96803.25
2023-02-24T22:33:43.143Z,96805.81
2023-02-24T22:36:21.733Z,96799.84
2023-02-24T22:38:48.869Z,96789.50
2023-02-24T22:41:21.826Z,96796.47
2023-02-24T22:43:48.696Z,96797.38
2023-02-24T22:46:18.105Z,96792.91
2023-02-24T22:48:45.188Z,96811.19
2023-02-24T22:51:13.021Z,96806.94
2023-02-24T22:53:42.119Z,96806.13
2023-02-24T22:56:11.519Z,96802.81
2023-02-24T22:58:39.759Z,96809.84
2023-02-24T23:01:22.337Z,96814.94
2023-02-24T23:03:49.634Z,96812.34
2023-02-24T23:06:22.611Z,96807.38
2023-02-24T23:08:51.132Z,96816.28
2023-02-24T23:11:32.001Z,96816.25
2023-02-24T23:14:01.489Z,96826.00
2023-02-24T23:16:31.965Z,96836.41
2023-02-24T23:19:01.065Z,96833.03
2023-02-24T23:21:38.061Z,96834.66
2023-02-24T23:24:06.565Z,96844.13
2023-02-24T23:26:38.507Z,96826.97
2023-02-24T23:29:06.326Z,96833.13
2023-02-24T23:31:33.576Z,96836.47
2023-02-24T23:34:00.299Z,96836.66
2023-02-24T23:36:26.849Z,96838.38
2023-02-24T23:38:54.327Z,96843.44
2023-02-24T23:41:21.076Z,96838.38
2023-02-24T23:43:47.701Z,96838.25
2023-02-24T23:46:14.508Z,96841.44
2023-02-24T23:48:41.693Z,96834.56
2023-02-24T23:51:13.159Z,96832.84
2023-02-24T23:53:41.511Z,96830.75
2023-02-24T23:56:10.178Z,96829.25
2023-02-24T23:58:40.050Z,96820.50
